createdAt,value
2018-09-10T00:00:21.811Z,67.30
2018-09-10T00:02:50.149Z,67.30
2018-09-10T00:05:18.708Z,67.30
2018-09-10T00:07:46.990Z,67.30
2018-09-10T00:10:15.335Z,67.40
2018-09-10T00:12:43.739Z,67.30
2018-09-10T00:15:12.019Z,67.30
2018-09-10T00:17:40.315Z,67.40
2018-09-10T00:20:08.593Z,67.30
2018-09-10T00:22:36.924Z,67.30
2018-09-10T00:25:06.171Z,67.10
2018-09-10T00:27:34.533Z,67.10
2018-09-10T00:30:02.811Z,67.30
2018-09-10T00:32:31.175Z,67.20
2018-09-10T00:34:59.487Z,67.20
2018-09-10T00:37:27.852Z,67.40
2018-09-10T00:39:56.163Z,67.30
2018-09-10T00:42:24.459Z,67.20
2018-09-10T00:44:52.724Z,67.40
2018-09-10T00:47:20.995Z,67.30
2018-09-10T00:49:49.290Z,67.40
2018-09-10T00:52:17.547Z,67.20
2018-09-10T00:54:45.818Z,67.30
2018-09-10T00:57:14.207Z,67.30
2018-09-10T00:59:42.529Z,67.50
2018-09-10T01:02:10.812Z,67.60
2018-09-10T01:04:39.076Z,67.50
2018-09-10T01:07:07.532Z,67.60
2018-09-10T01:09:35.895Z,67.40
2018-09-10T01:12:04.234Z,67.60
2018-09-10T01:14:32.544Z,67.40
2018-09-10T01:17:00.815Z,67.40
2018-09-10T01:19:29.143Z,67.40
2018-09-10T01:21:57.426Z,67.40
2018-09-10T01:24:25.751Z,67.50
2018-09-10T01:26:54.030Z,67.40
2018-09-10T01:29:22.300Z,67.40
2018-09-10T01:31:50.604Z,67.40
2018-09-10T01:34:24.187Z,67.40
2018-09-10T01:36:52.549Z,67.60
2018-09-10T01:39:20.860Z,67.50
2018-09-10T01:41:49.165Z,67.60
2018-09-10T01:44:17.451Z,67.60
2018-09-10T01:46:45.707Z,67.50
2018-09-10T01:49:14.240Z,67.50
2018-09-10T01:51:42.551Z,67.60
2018-09-10T01:54:10.847Z,67.70
2018-09-10T01:56:40.023Z,67.80
2018-09-10T01:59:08.330Z,67.70
2018-09-10T02:01:36.648Z,67.70
2018-09-10T02:04:04.925Z,67.70
2018-09-10T02:06:33.197Z,67.80
2018-09-10T02:09:01.459Z,67.60
2018-09-10T02:11:29.735Z,67.80
2018-09-10T02:13:57.999Z,67.90
2018-09-10T02:16:26.283Z,67.70
2018-09-10T02:18:54.621Z,67.80
2018-09-10T02:21:22.876Z,68.00
2018-09-10T02:23:52.195Z,68.10
2018-09-10T02:26:20.458Z,68.10
2018-09-10T02:28:48.812Z,68.00
2018-09-10T02:31:17.072Z,68.00
2018-09-10T02:33:45.384Z,67.90
2018-09-10T02:36:13.651Z,68.00
2018-09-10T02:38:42.072Z,68.00
2018-09-10T02:41:10.311Z,68.00
2018-09-10T02:43:38.556Z,68.00
2018-09-10T02:46:07.338Z,68.00
2018-09-10T02:48:35.571Z,68.20
2018-09-10T02:51:03.956Z,68.20
2018-09-10T02:53:32.211Z,68.20
2018-09-10T02:56:00.473Z,68.20
2018-09-10T02:58:28.827Z,68.40
2018-09-10T03:00:57.103Z,68.40
2018-09-10T03:03:25.375Z,68.50
2018-09-10T03:05:53.723Z,68.50
2018-09-10T03:08:22.007Z,68.40
2018-09-10T03:10:50.295Z,68.30
2018-09-10T03:13:18.583Z,68.40
2018-09-10T03:15:46.860Z,68.40
2018-09-10T03:18:15.187Z,68.50
2018-09-10T03:20:43.472Z,68.50
2018-09-10T03:23:11.769Z,68.60
2018-09-10T03:25:40.081Z,68.50
2018-09-10T03:28:08.340Z,68.80
2018-09-10T03:30:36.708Z,68.60
2018-09-10T03:33:05.091Z,68.50
2018-09-10T03:35:33.763Z,68.70
2018-09-10T03:38:02.112Z,68.70
2018-09-10T03:40:30.372Z,68.60
2018-09-10T03:42:58.684Z,68.80
2018-09-10T03:45:26.943Z,68.60
2018-09-10T03:47:55.215Z,68.90
2018-09-10T03:50:23.509Z,68.70
2018-09-10T03:52:51.955Z,68.80
2018-09-10T03:55:20.268Z,68.80
2018-09-10T03:57:48.908Z,68.90
2018-09-10T04:00:17.148Z,69.00
2018-09-10T04:02:45.488Z,68.90
2018-09-10T04:05:13.806Z,69.10
2018-09-10T04:07:42.055Z,69.20
2018-09-10T04:10:10.380Z,69.10
2018-09-10T04:12:38.631Z,69.30
2018-09-10T04:15:06.956Z,69.00
2018-09-10T04:17:39.083Z,69.10
2018-09-10T04:20:09.847Z,69.20
2018-09-10T04:22:39.031Z,69.30
2018-09-10T04:25:07.877Z,69.30
2018-09-10T04:27:36.966Z,69.10
2018-09-10T04:30:07.545Z,69.30
2018-09-10T04:32:35.859Z,69.30
2018-09-10T04:35:04.216Z,69.40
2018-09-10T04:37:32.894Z,69.40
2018-09-10T04:40:01.146Z,69.40
2018-09-10T04:42:30.444Z,69.60
2018-09-10T04:44:58.740Z,69.70
2018-09-10T04:47:27.028Z,69.70
2018-09-10T04:49:55.320Z,69.70
2018-09-10T04:52:23.579Z,69.80
2018-09-10T04:54:51.871Z,69.90
2018-09-10T04:57:20.176Z,70.10
2018-09-10T04:59:48.479Z,70.60
2018-09-10T05:02:16.756Z,70.40
2018-09-10T05:04:45.027Z,70.50
2018-09-10T05:07:13.319Z,70.20
2018-09-10T05:09:41.659Z,70.10
2018-09-10T05:12:09.932Z,70.20
2018-09-10T05:14:38.443Z,70.50
2018-09-10T05:17:06.699Z,70.20
2018-09-10T05:19:35.396Z,70.60
2018-09-10T05:22:04.521Z,70.40
2018-09-10T05:24:32.740Z,71.00
2018-09-10T05:27:01.037Z,71.00
2018-09-10T05:29:29.373Z,71.10
2018-09-10T05:31:57.680Z,70.80
2018-09-10T05:34:25.999Z,70.80
2018-09-10T05:36:54.239Z,71.00
2018-09-10T05:39:27.709Z,70.90
2018-09-10T05:41:56.012Z,71.00
2018-09-10T05:44:24.545Z,71.30
2018-09-10T05:46:52.831Z,71.40
2018-09-10T05:49:21.112Z,71.80
2018-09-10T05:51:49.723Z,71.60
2018-09-10T05:54:18.000Z,71.90
2018-09-10T05:56:46.339Z,72.00
2018-09-10T05:59:14.644Z,71.40
2018-09-10T06:01:42.996Z,71.60
2018-09-10T06:04:11.319Z,72.10
2018-09-10T06:06:39.611Z,71.20
2018-09-10T06:09:08.423Z,72.30
2018-09-10T06:11:36.907Z,72.60
2018-09-10T06:14:05.375Z,72.10
2018-09-10T06:16:34.070Z,71.80
2018-09-10T06:19:02.401Z,71.80
2018-09-10T06:21:30.802Z,72.00
2018-09-10T06:24:00.507Z,72.20
2018-09-10T06:26:28.914Z,72.10
2018-09-10T06:28:57.434Z,72.30
2018-09-10T06:31:25.962Z,72.20
2018-09-10T06:33:55.557Z,72.60
2018-09-10T06:36:24.147Z,72.40
2018-09-10T06:38:52.501Z,71.70
2018-09-10T06:41:20.783Z,72.10
2018-09-10T06:43:49.121Z,73.00
2018-09-10T06:46:17.539Z,73.30
2018-09-10T06:48:46.112Z,72.80
2018-09-10T06:51:14.437Z,72.30
2018-09-10T06:53:42.772Z,73.30
2018-09-10T06:56:11.099Z,72.80
2018-09-10T06:58:39.455Z,73.30
2018-09-10T07:01:07.812Z,72.60
2018-09-10T07:03:36.124Z,72.30
2018-09-10T07:06:04.448Z,72.70
2018-09-10T07:08:33.226Z,72.80
2018-09-10T07:11:01.724Z,72.40
2018-09-10T07:13:30.281Z,72.00
2018-09-10T07:15:58.709Z,73.20
2018-09-10T07:18:27.175Z,72.50
2018-09-10T07:20:55.699Z,73.00
2018-09-10T07:23:24.396Z,72.20
2018-09-10T07:25:52.868Z,73.00
2018-09-10T07:28:21.564Z,72.10
2018-09-10T07:30:50.129Z,71.40
2018-09-10T07:33:18.620Z,71.90
2018-09-10T07:35:47.165Z,72.80
2018-09-10T07:38:15.624Z,72.90
2018-09-10T07:40:44.148Z,72.50
2018-09-10T07:43:19.748Z,72.10
2018-09-10T07:45:48.309Z,72.50
2018-09-10T07:48:16.828Z,71.70
2018-09-10T07:50:45.334Z,71.10
2018-09-10T07:53:13.875Z,71.10
2018-09-10T07:55:42.377Z,70.90
2018-09-10T07:58:10.914Z,70.60
2018-09-10T08:00:39.550Z,70.40
2018-09-10T08:03:08.233Z,71.90
2018-09-10T08:05:36.788Z,70.00
2018-09-10T08:08:05.335Z,70.10
2018-09-10T08:10:33.872Z,70.40
2018-09-10T08:13:03.291Z,69.70
2018-09-10T08:15:31.852Z,69.10
2018-09-10T08:18:01.423Z,69.00
2018-09-10T08:20:29.948Z,69.40
2018-09-10T08:22:58.534Z,69.10
2018-09-10T08:25:27.225Z,67.80
2018-09-10T08:27:55.719Z,67.50
2018-09-10T08:30:24.373Z,68.20
2018-09-10T08:32:53.004Z,67.90
2018-09-10T08:35:21.740Z,67.70
2018-09-10T08:37:50.212Z,67.70
2018-09-10T08:40:18.819Z,68.00
2018-09-10T08:42:47.558Z,68.10
2018-09-10T08:45:15.945Z,67.90
2018-09-10T08:47:44.436Z,67.90
2018-09-10T08:50:12.940Z,68.40
2018-09-10T08:52:41.672Z,68.60
2018-09-10T08:55:10.519Z,68.60
2018-09-10T08:57:38.916Z,68.60
2018-09-10T09:00:07.636Z,68.90
2018-09-10T09:02:36.313Z,69.20
2018-09-10T09:05:05.000Z,67.70
2018-09-10T09:07:33.472Z,66.90
2018-09-10T09:10:02.176Z,66.50
2018-09-10T09:12:30.642Z,66.80
2018-09-10T09:14:59.322Z,66.80
2018-09-10T09:17:27.925Z,67.60
2018-09-10T09:19:56.405Z,66.80
2018-09-10T09:22:25.033Z,67.70
2018-09-10T09:24:53.667Z,67.10
2018-09-10T09:30:17.743Z,65.70
2018-09-10T09:32:46.199Z,65.10
2018-09-10T09:35:14.657Z,65.40
2018-09-10T09:37:48.719Z,65.20
2018-09-10T09:40:22.524Z,65.20
2018-09-10T09:43:57.833Z,64.80
2018-09-10T09:46:26.438Z,65.30
2018-09-10T09:48:55.810Z,65.20
2018-09-10T09:51:24.245Z,64.80
2018-09-10T09:53:52.825Z,64.50
2018-09-10T09:56:21.260Z,64.40
2018-09-10T09:58:49.548Z,64.30
2018-09-10T10:01:20.899Z,64.50
2018-09-10T10:03:55.283Z,64.10
2018-09-10T10:06:24.485Z,64.00
2018-09-10T10:08:53.100Z,63.70
2018-09-10T10:11:21.474Z,63.10
2018-09-10T10:13:49.776Z,63.70
2018-09-10T10:16:18.110Z,64.30
2018-09-10T10:18:46.459Z,63.70
2018-09-10T10:21:14.755Z,63.20
2018-09-10T10:23:43.062Z,63.00
2018-09-10T10:26:11.398Z,62.50
2018-09-10T10:28:39.684Z,61.80
2018-09-10T10:31:08.099Z,61.00
2018-09-10T10:33:36.408Z,61.30
2018-09-10T10:36:04.711Z,61.20
2018-09-10T10:38:33.084Z,61.10
2018-09-10T10:41:01.468Z,60.80
2018-09-10T10:43:29.747Z,60.60
2018-09-10T10:46:22.344Z,60.50
2018-09-10T10:48:50.709Z,60.80
2018-09-10T10:51:19.052Z,60.80
2018-09-10T10:53:47.408Z,60.20
2018-09-10T10:56:15.699Z,59.80
2018-09-10T10:58:44.012Z,59.20
2018-09-10T11:01:12.303Z,59.00
2018-09-10T11:03:40.645Z,58.70
2018-09-10T11:06:08.961Z,58.70
2018-09-10T11:08:37.304Z,58.60
2018-09-10T11:11:05.651Z,58.70
2018-09-10T11:13:34.159Z,58.10
2018-09-10T11:16:02.492Z,57.90
2018-09-10T11:18:30.836Z,57.80
2018-09-10T11:20:59.121Z,57.90
2018-09-10T11:23:27.455Z,58.10
2018-09-10T11:25:55.815Z,57.70
2018-09-10T11:28:24.172Z,58.70
2018-09-10T11:30:52.516Z,58.50
2018-09-10T11:33:20.809Z,58.30
2018-09-10T11:35:49.101Z,58.40
2018-09-10T11:38:17.355Z,59.00
2018-09-10T11:40:45.688Z,58.80
2018-09-10T11:43:14.039Z,57.90
2018-09-10T11:45:42.381Z,57.90
2018-09-10T11:48:10.995Z,57.80
2018-09-10T11:50:39.598Z,57.40
2018-09-10T11:53:08.226Z,56.90
2018-09-10T11:55:36.818Z,57.30
2018-09-10T11:58:05.497Z,57.50
2018-09-10T12:00:34.411Z,57.50
2018-09-10T12:03:02.984Z,57.50
2018-09-10T12:05:31.636Z,57.20
2018-09-10T12:08:00.223Z,56.60
2018-09-10T12:10:28.809Z,57.30
2018-09-10T12:12:57.308Z,57.30
2018-09-10T12:15:25.940Z,57.60
2018-09-10T12:17:54.437Z,57.40
2018-09-10T12:20:22.964Z,58.00
2018-09-10T12:22:51.533Z,58.20
2018-09-10T12:25:20.752Z,58.00
2018-09-10T12:27:50.405Z,58.30
2018-09-10T12:30:18.913Z,58.20
2018-09-10T12:32:47.474Z,58.50
2018-09-10T12:35:16.000Z,58.10
2018-09-10T12:37:44.521Z,58.00
2018-09-10T12:40:13.745Z,58.80
2018-09-10T12:42:42.354Z,58.40
2018-09-10T12:45:10.839Z,58.40
2018-09-10T12:47:39.255Z,58.40
2018-09-10T12:50:07.788Z,58.60
2018-09-10T12:52:37.033Z,58.80
2018-09-10T12:55:05.800Z,58.50
2018-09-10T12:57:34.421Z,58.00
2018-09-10T13:00:07.176Z,57.40
2018-09-10T13:02:36.425Z,57.50
2018-09-10T13:05:05.093Z,57.00
2018-09-10T13:07:33.948Z,56.30
2018-09-10T13:10:02.528Z,55.70
2018-09-10T13:12:31.065Z,55.90
2018-09-10T13:15:00.620Z,55.50
2018-09-10T13:17:31.385Z,55.20
2018-09-10T13:19:59.928Z,54.90
2018-09-10T13:22:28.501Z,54.60
2018-09-10T13:24:57.156Z,54.50
2018-09-10T13:27:25.660Z,54.40
2018-09-10T13:29:54.245Z,54.80
2018-09-10T13:32:22.660Z,54.50
2018-09-10T13:34:51.120Z,54.50
2018-09-10T13:37:21.265Z,55.20
2018-09-10T13:39:49.851Z,54.70
2018-09-10T13:42:18.325Z,54.80
2018-09-10T13:44:46.774Z,55.00
2018-09-10T13:47:15.196Z,56.20
2018-09-10T13:49:44.037Z,56.00
2018-09-10T13:52:12.567Z,55.50
2018-09-10T13:54:42.284Z,56.20
2018-09-10T13:57:10.777Z,55.60
2018-09-10T13:59:39.308Z,56.00
2018-09-10T14:02:07.906Z,56.40
2018-09-10T14:04:36.603Z,56.10
2018-09-10T14:07:05.133Z,55.20
2018-09-10T14:09:33.679Z,54.80
2018-09-10T14:12:02.282Z,54.90
2018-09-10T14:14:31.213Z,55.40
2018-09-10T14:16:59.728Z,54.20
2018-09-10T14:19:29.269Z,55.10
2018-09-10T14:21:57.941Z,54.90
2018-09-10T14:24:26.557Z,55.60
2018-09-10T14:26:55.088Z,55.30
2018-09-10T14:29:23.600Z,55.30
2018-09-10T14:31:52.377Z,55.30
2018-09-10T14:34:20.849Z,55.20
2018-09-10T14:36:49.383Z,55.90
2018-09-10T14:39:18.104Z,55.40
2018-09-10T14:41:46.676Z,54.90
2018-09-10T14:44:15.168Z,55.00
2018-09-10T14:46:49.603Z,54.80
2018-09-10T14:49:18.138Z,55.40
2018-09-10T14:51:46.748Z,55.60
2018-09-10T14:54:16.206Z,55.40
2018-09-10T14:56:45.240Z,55.60
2018-09-10T14:59:14.852Z,55.80
2018-09-10T15:01:43.311Z,55.20
2018-09-10T15:04:11.829Z,55.30
2018-09-10T15:06:40.064Z,55.10
2018-09-10T15:09:08.989Z,55.60
2018-09-10T15:11:37.308Z,55.60
2018-09-10T15:14:05.674Z,56.10
2018-09-10T15:16:34.008Z,55.80
2018-09-10T15:19:02.623Z,55.90
2018-09-10T15:21:31.084Z,56.30
2018-09-10T15:23:59.425Z,56.50
2018-09-10T15:26:27.716Z,56.80
2018-09-10T15:28:56.095Z,56.90
2018-09-10T15:31:24.453Z,57.10
2018-09-10T15:33:52.728Z,57.60
2018-09-10T15:36:21.037Z,57.50
2018-09-10T15:38:49.704Z,57.20
2018-09-10T15:41:19.755Z,57.30
2018-09-10T15:43:48.024Z,57.20
2018-09-10T15:46:16.443Z,57.10
2018-09-10T15:48:44.808Z,57.10
2018-09-10T15:51:13.131Z,57.20
2018-09-10T15:53:41.407Z,57.10
2018-09-10T15:56:09.687Z,57.00
2018-09-10T15:58:37.979Z,57.10
2018-09-10T16:01:06.444Z,57.10
2018-09-10T16:03:34.823Z,57.20
2018-09-10T16:06:04.164Z,57.10
2018-09-10T16:08:32.904Z,57.40
2018-09-10T16:11:01.192Z,58.00
2018-09-10T16:13:30.567Z,57.20
2018-09-10T16:18:49.656Z,56.70
2018-09-10T16:21:18.040Z,56.80
2018-09-10T16:23:47.424Z,57.00
2018-09-10T16:26:15.780Z,57.20
2018-09-10T16:28:44.176Z,56.80
2018-09-10T16:31:12.480Z,56.70
2018-09-10T16:33:54.122Z,56.70
2018-09-10T16:36:22.810Z,57.00
2018-09-10T16:38:52.612Z,57.00
2018-09-10T16:41:21.231Z,57.00
2018-09-10T16:43:49.832Z,57.30
2018-09-10T16:46:18.568Z,57.30
2018-09-10T16:48:47.366Z,57.10
2018-09-10T16:51:15.854Z,57.50
2018-09-10T16:53:44.517Z,57.60
2018-09-10T16:56:13.289Z,57.70
2018-09-10T16:58:43.155Z,57.70
2018-09-10T17:01:11.896Z,57.70
2018-09-10T17:03:40.566Z,58.30
2018-09-10T17:06:09.331Z,58.40
2018-09-10T17:08:38.021Z,58.60
2018-09-10T17:11:15.191Z,58.60
2018-09-10T17:13:44.221Z,58.70
2018-09-10T17:16:14.418Z,58.70
2018-09-10T17:18:43.036Z,58.80
2018-09-10T17:21:11.692Z,58.90
2018-09-10T17:23:40.611Z,58.90
2018-09-10T17:26:09.185Z,58.80
2018-09-10T17:28:37.724Z,59.10
2018-09-10T17:31:08.380Z,59.60
2018-09-10T17:33:37.568Z,60.00
2018-09-10T17:36:06.253Z,59.80
2018-09-10T17:38:35.024Z,59.90
2018-09-10T17:41:03.689Z,59.60
2018-09-10T17:43:32.301Z,59.40
2018-09-10T17:46:00.985Z,59.60
2018-09-10T17:48:40.322Z,59.60
2018-09-10T17:51:09.037Z,59.60
2018-09-10T17:53:37.943Z,60.10
2018-09-10T17:56:07.556Z,60.10
2018-09-10T17:58:36.096Z,59.80
2018-09-10T18:01:04.845Z,59.90
2018-09-10T18:03:33.460Z,60.00
2018-09-10T18:08:59.729Z,60.00
2018-09-10T18:11:28.238Z,60.20
2018-09-10T18:13:56.769Z,60.50
2018-09-10T18:16:25.257Z,60.80
2018-09-10T18:18:53.705Z,61.10
2018-09-10T18:21:22.437Z,61.10
2018-09-10T18:23:50.902Z,61.20
2018-09-10T18:26:19.548Z,61.50
2018-09-10T18:28:53.680Z,61.70
2018-09-10T18:31:22.416Z,62.20
2018-09-10T18:33:51.022Z,62.10
2018-09-10T18:36:28.144Z,62.30
2018-09-10T18:38:56.797Z,62.40
2018-09-10T18:41:25.498Z,62.60
2018-09-10T18:43:54.185Z,62.70
2018-09-10T18:46:22.881Z,62.50
2018-09-10T18:48:51.655Z,62.80
2018-09-10T18:51:20.292Z,62.90
2018-09-10T18:53:48.936Z,63.00
2018-09-10T18:56:17.553Z,63.10
2018-09-10T18:58:46.225Z,63.20
2018-09-10T19:01:15.332Z,63.50
2018-09-10T19:03:44.997Z,63.50
2018-09-10T19:06:14.637Z,63.60
2018-09-10T19:08:43.273Z,63.50
2018-09-10T19:11:12.079Z,63.70
2018-09-10T19:13:40.742Z,63.90
2018-09-10T19:16:09.358Z,64.10
2018-09-10T19:18:37.960Z,64.00
2018-09-10T19:21:07.181Z,64.10
2018-09-10T19:23:36.767Z,64.00
2018-09-10T19:26:06.218Z,64.10
2018-09-10T19:28:34.899Z,64.20
2018-09-10T19:31:03.566Z,64.10
2018-09-10T19:33:32.605Z,64.30
2018-09-10T19:36:01.292Z,64.30
2018-09-10T19:38:30.042Z,64.50
2018-09-10T19:40:58.733Z,64.60
2018-09-10T19:43:27.341Z,64.70
2018-09-10T19:45:56.090Z,64.70
2018-09-10T19:48:25.104Z,64.90
2018-09-10T19:50:53.622Z,64.90
2018-09-10T19:53:22.166Z,65.00
2018-09-10T19:55:50.853Z,65.00
2018-09-10T19:58:19.412Z,65.20
2018-09-10T20:00:48.048Z,65.20
2018-09-10T20:03:16.518Z,65.40
2018-09-10T20:05:46.422Z,65.30
2018-09-10T20:08:15.021Z,65.40
2018-09-10T20:10:43.590Z,65.60
2018-09-10T20:13:17.494Z,65.50
2018-09-10T20:15:46.062Z,65.30
2018-09-10T20:18:14.696Z,65.60
2018-09-10T20:20:43.456Z,65.80
2018-09-10T20:23:12.113Z,65.90
2018-09-10T20:25:40.689Z,65.90
2018-09-10T20:28:09.244Z,66.00
2018-09-10T20:30:37.946Z,66.10
2018-09-10T20:33:06.644Z,66.10
2018-09-10T20:35:35.267Z,66.10
2018-09-10T20:38:17.816Z,66.10
2018-09-10T20:40:48.585Z,66.10
2018-09-10T20:43:17.209Z,66.30
2018-09-10T20:45:45.931Z,66.30
2018-09-10T20:48:14.671Z,66.50
2018-09-10T20:50:43.213Z,66.60
2018-09-10T20:53:17.032Z,66.50
2018-09-10T20:55:45.492Z,66.40
2018-09-10T20:58:14.065Z,66.60
2018-09-10T21:00:44.723Z,66.70
2018-09-10T21:03:13.179Z,66.70
2018-09-10T21:05:41.679Z,66.60
2018-09-10T21:08:10.493Z,66.80
2018-09-10T21:10:39.234Z,67.00
2018-09-10T21:13:07.964Z,67.20
2018-09-10T21:15:36.533Z,67.30
2018-09-10T21:18:05.179Z,67.40
2018-09-10T21:20:34.136Z,67.60
2018-09-10T21:23:09.545Z,67.60
2018-09-10T21:25:38.702Z,67.70
2018-09-10T21:28:07.310Z,67.70
2018-09-10T21:30:35.947Z,68.00
2018-09-10T21:33:04.525Z,67.90
2018-09-10T21:35:33.360Z,68.00
2018-09-10T21:38:02.186Z,67.80
2018-09-10T21:40:30.815Z,67.90
2018-09-10T21:42:59.416Z,67.90
2018-09-10T21:45:28.145Z,68.20
2018-09-10T21:47:57.077Z,68.60
2018-09-10T21:50:25.860Z,68.60
2018-09-10T21:53:04.262Z,68.30
2018-09-10T21:55:32.883Z,68.50
2018-09-10T21:58:01.176Z,68.50
2018-09-10T22:00:29.588Z,68.50
2018-09-10T22:03:02.442Z,68.60
2018-09-10T22:05:30.827Z,68.30
2018-09-10T22:08:00.691Z,68.50
2018-09-10T22:10:29.081Z,68.60
2018-09-10T22:12:57.429Z,68.50
2018-09-10T22:15:25.792Z,68.60
2018-09-10T22:17:54.203Z,68.50
2018-09-10T22:20:22.556Z,68.80
2018-09-10T22:22:52.967Z,68.80
2018-09-10T22:25:21.287Z,69.10
2018-09-10T22:27:49.635Z,68.90
2018-09-10T22:30:17.957Z,69.00
2018-09-10T22:32:46.590Z,68.90
2018-09-10T22:35:14.907Z,69.00
2018-09-10T22:37:43.213Z,68.90
2018-09-10T22:40:11.505Z,68.90
2018-09-10T22:42:39.808Z,69.00
2018-09-10T22:45:08.144Z,69.10
2018-09-10T22:47:36.557Z,69.20
2018-09-10T22:50:06.133Z,69.30
2018-09-10T22:52:34.518Z,69.30
2018-09-10T22:55:02.853Z,69.40
2018-09-10T22:57:31.204Z,69.20
2018-09-10T22:59:59.575Z,69.30
2018-09-10T23:02:28.027Z,69.60
2018-09-10T23:04:56.391Z,69.50
2018-09-10T23:07:24.882Z,69.50
2018-09-10T23:09:53.207Z,70.40
2018-09-10T23:12:21.800Z,69.60
2018-09-10T23:14:50.133Z,69.30
2018-09-10T23:17:18.461Z,69.60
2018-09-10T23:19:46.939Z,69.60
2018-09-10T23:22:15.328Z,69.90
2018-09-10T23:24:44.717Z,69.60
2018-09-10T23:27:13.293Z,69.60
2018-09-10T23:29:41.872Z,70.30
2018-09-10T23:32:13.044Z,70.10
2018-09-10T23:34:41.708Z,70.10
2018-09-10T23:37:10.257Z,70.30
2018-09-10T23:39:38.815Z,70.00
2018-09-10T23:42:07.346Z,70.20
2018-09-10T23:44:35.934Z,70.40
2018-09-10T23:47:04.445Z,70.50
2018-09-10T23:49:32.975Z,70.30
2018-09-10T23:52:01.584Z,70.40
2018-09-10T23:54:30.050Z,70.70
2018-09-10T23:56:58.611Z,70.70
2018-09-10T23:59:27.245Z,70.60
